This is the latest recevied weather packets stored in our database for station/object EA1ZE. If no packets are shown the sender has not sent any weather packets the latest 10 day(s).
| Time | Temp. | Humidity | Pressure | Rain* | Wind** | Luminosity | Snow |
|---|---|---|---|---|---|---|---|
| 1787593510 | 23.33° C | 56% | 1007.7 hPa | 0 mm | - | - | - |
| 1787592609 | 23.33° C | 54% | 1007.7 hPa | 0.25 mm | - | - | - |
| 1787591708 | 23.33° C | 55% | 1007.8 hPa | 0.25 mm | - | - | - |
| 1787590814 | 23.33° C | 56% | 1007.6 hPa | 0.25 mm | - | - | - |
| 1787589905 | 22.78° C | 56% | 1008 hPa | 0.51 mm | - | - | - |
| 1787589005 | 21.67° C | 63% | 1007.8 hPa | 0.25 mm | - | - | - |
| 1787588114 | 21.11° C | 67% | 1008 hPa | 0.25 mm | - | - | - |
| 1787587205 | 23.33° C | 60% | 1007.9 hPa | 0.25 mm | - | - | - |
| 1787586304 | 24.44° C | 48% | 1007.3 hPa | 0 mm | - | - | - |
| 1787585404 | 25° C | 47% | 1007.4 hPa | 0 mm | - | - | - |
| 1787584505 | 24.44° C | 49% | 1007.7 hPa | 0 mm | - | - | - |
| 1787583602 | 25° C | 48% | 1007.8 hPa | 0 mm | - | - | - |
| 1787582763 | 24.44° C | 48% | 1007.8 hPa | 0 mm | - | - | - |
| 1787581862 | 23.89° C | 49% | 1008.1 hPa | 0 mm | - | - | - |
| 1787580960 | 23.33° C | 60% | 1008.3 hPa | 0 mm | - | - | - |
| 1787580061 | 22.22° C | 64% | 1008.4 hPa | 0 mm | - | - | - |
| 1787579157 | 21.67° C | 70% | 1008.7 hPa | 0 mm | - | - | - |
| 1787578256 | 23.33° C | 61% | 1009 hPa | 0 mm | - | - | - |
| 1787577354 | 25° C | 47% | 1008.3 hPa | 0 mm | - | - | - |
| 1787576454 | 25° C | 47% | 1008.5 hPa | 0 mm | - | - | - |
| 1787575595 | 24.44° C | 48% | 1008.4 hPa | 0 mm | - | - | - |
| 1787574685 | 24.44° C | 48% | 1008.4 hPa | 0 mm | - | - | - |
| 1787573791 | 24.44° C | 47% | 1008.6 hPa | 0 mm | - | - | - |
| 1787572891 | 23.89° C | 49% | 1008.9 hPa | 0 mm | - | - | - |
| 1787571996 | 23.89° C | 49% | 1008.9 hPa | 0 mm | - | - | - |
* Rain latest hour (hover to see other rain measurements)
** Current wind speed in m/s (hover to see current wind gust speed)